Time;durP1;ratioP1;P1;durP2;ratioP2;P2;SDS_P1;SDS_P2;PMS_P1;PMS_P2;Temp;Humidity;BMP_temperature;BMP_pressure;BME280_temperature;BME280_humidity;BME280_pressure;Samples;Min_cycle;Max_cycle;Signal;HPM_P1;HPM_P2
2022/01/13 00:00:31;;;;;;;327.60;31.70;;;4.40;99.90;;;;;;4973456;28;20035;-55
2022/01/13 00:02:56;;;;;;;376.48;35.55;;;4.50;99.90;;;;;;4973820;28;20047;-55
2022/01/13 00:05:30;;;;;;;353.25;33.05;;;4.40;99.90;;;;;;4973915;28;20035;-59
2022/01/13 00:07:57;;;;;;;;;;;4.50;99.90;;;;;;4974591;28;21308;-58
2022/01/13 00:10:25;;;;;;;425.52;35.03;;;4.40;99.90;;;;;;4974045;28;19988;-58
2022/01/13 00:13:03;;;;;;;451.70;38.17;;;4.40;99.90;;;;;;4973787;28;20058;-54
2022/01/13 00:15:51;;;;;;;387.25;36.85;;;4.50;99.90;;;;;;4955214;28;20046;-53
2022/01/13 00:18:38;;;;;;;425.80;35.33;;;4.50;99.90;;;;;;4954873;28;20070;-55
2022/01/13 00:21:16;;;;;;;468.42;41.15;;;4.50;99.90;;;;;;4953347;28;20525;-57
2022/01/13 00:23:52;;;;;;;428.17;38.65;;;4.50;99.90;;;;;;4954196;28;20118;-55
2022/01/13 00:26:21;;;;;;;431.25;38.67;;;4.50;99.90;;;;;;4954514;28;20039;-57
2022/01/13 00:28:49;;;;;;;405.05;38.83;;;4.50;99.90;;;;;;4954347;28;20039;-54
2022/01/13 00:31:18;;;;;;;413.98;35.95;;;4.50;99.90;;;;;;4953762;28;20097;-53
2022/01/13 00:33:46;;;;;;;462.95;37.45;;;4.70;99.90;;;;;;4954313;28;20085;-57
2022/01/13 00:36:13;;;;;;;411.77;35.58;;;4.50;99.90;;;;;;4953828;28;20077;-55
2022/01/13 00:38:39;;;;;;;432.98;36.45;;;4.50;99.90;;;;;;4954160;28;20040;-53
2022/01/13 00:41:04;;;;;;;464.27;38.08;;;4.50;99.90;;;;;;4953709;28;20110;-58
2022/01/13 00:43:31;;;;;;;458.90;36.90;;;4.50;99.90;;;;;;4955098;28;20158;-57
2022/01/13 00:45:57;;;;;;;489.67;37.78;;;4.50;99.90;;;;;;4954028;28;20487;-56
2022/01/13 00:48:23;;;;;;;496.27;39.35;;;4.50;99.90;;;;;;4953705;28;20134;-55
2022/01/13 00:50:49;;;;;;;449.05;36.85;;;4.60;99.90;;;;;;4953239;28;20094;-56
2022/01/13 00:53:16;;;;;;;435.10;35.03;;;4.60;99.90;;;;;;4953872;28;20043;-56
2022/01/13 00:55:48;;;;;;;436.90;34.65;;;4.50;99.90;;;;;;4953782;28;20039;-52
2022/01/13 00:58:14;;;;;;;395.90;34.22;;;4.50;99.90;;;;;;4953285;28;20611;-53
2022/01/13 01:00:41;;;;;;;408.25;32.78;;;4.50;99.90;;;;;;4953264;28;20110;-56
2022/01/13 01:03:08;;;;;;;364.05;32.25;;;4.50;99.90;;;;;;4936651;28;20035;-57
2022/01/13 01:05:35;;;;;;;384.80;31.80;;;4.50;99.90;;;;;;4953532;28;20118;-57
2022/01/13 01:08:05;;;;;;;408.35;33.30;;;4.50;99.90;;;;;;4953306;28;20037;-55
2022/01/13 01:10:30;;;;;;;390.75;32.58;;;4.50;99.90;;;;;;4953385;28;20122;-54
2022/01/13 01:12:56;;;;;;;425.48;32.80;;;4.60;99.90;;;;;;4953055;28;20134;-55
2022/01/13 01:15:24;;;;;;;419.65;31.25;;;4.60;99.90;;;;;;4953358;28;20042;-55
2022/01/13 01:17:56;;;;;;;431.75;34.28;;;4.60;99.90;;;;;;4952924;28;20487;-57
2022/01/13 01:20:28;;;;;;;416.33;34.58;;;4.60;99.90;;;;;;4953476;28;20043;-57
2022/01/13 01:23:02;;;;;;;365.83;30.73;;;4.60;99.90;;;;;;4953467;28;20046;-55
2022/01/13 01:27:56;;;;;;;417.08;34.88;;;4.60;99.90;;;;;;4952848;28;20052;-55
2022/01/13 01:32:48;;;;;;;459.98;36.20;;;4.60;99.90;;;;;;4953241;28;20077;-55
2022/01/13 01:35:16;;;;;;;455.83;36.83;;;4.60;99.90;;;;;;4953329;28;20035;-58
2022/01/13 01:37:42;;;;;;;450.10;36.83;;;4.60;99.90;;;;;;4953149;28;20402;-54
2022/01/13 01:40:10;;;;;;;437.80;36.42;;;4.60;99.90;;;;;;4953017;28;20042;-55
2022/01/13 01:42:36;;;;;;;447.70;36.15;;;4.60;99.90;;;;;;4951676;28;20055;-55
2022/01/13 01:45:03;;;;;;;452.70;36.05;;;4.60;99.90;;;;;;4953068;28;20110;-58
2022/01/13 01:47:30;;;;;;;487.40;38.40;;;4.50;99.90;;;;;;4952832;28;20063;-56
2022/01/13 01:50:01;;;;;;;413.48;32.60;;;4.60;99.90;;;;;;4952900;28;20035;-56
2022/01/13 01:52:27;;;;;;;439.17;37.50;;;4.50;99.90;;;;;;4953011;28;20039;-56
2022/01/13 01:54:54;;;;;;;446.60;37.03;;;4.80;99.90;;;;;;4952627;28;20074;-54
2022/01/13 01:57:22;;;;;;;422.10;35.25;;;4.50;99.90;;;;;;4952766;28;20050;-54
2022/01/13 01:59:48;;;;;;;411.05;34.95;;;4.50;99.90;;;;;;4952139;28;20142;-57
2022/01/13 02:02:15;;;;;;;429.63;37.17;;;4.50;99.90;;;;;;4955201;28;20385;-57
2022/01/13 02:04:42;;;;;;;403.27;34.50;;;4.50;99.90;;;;;;4942698;28;20055;-53
2022/01/13 02:07:09;;;;;;;397.90;32.20;;;4.50;99.90;;;;;;4957983;28;20043;-53
2022/01/13 02:09:38;;;;;;;386.75;33.08;;;4.50;99.90;;;;;;4956589;28;20051;-56
2022/01/13 02:12:08;;;;;;;442.67;36.72;;;4.50;99.90;;;;;;4957476;28;20054;-53
2022/01/13 02:14:47;;;;;;;486.80;37.50;;;4.50;99.90;;;;;;4956695;28;20394;-56
2022/01/13 02:17:21;;;;;;;474.45;37.03;;;4.50;99.90;;;;;;4975342;28;20478;-56
2022/01/13 02:19:46;;;;;;;422.42;37.47;;;4.50;99.90;;;;;;4975928;28;20121;-54
2022/01/13 02:22:12;;;;;;;468.58;37.25;;;4.50;99.90;;;;;;4975983;28;20118;-55
2022/01/13 02:24:38;;;;;;;471.10;38.60;;;4.50;99.90;;;;;;4975751;28;20090;-53
2022/01/13 02:27:06;;;;;;;430.42;35.95;;;4.50;99.90;;;;;;4975617;28;20089;-55
2022/01/13 02:29:32;;;;;;;410.38;35.63;;;4.50;99.90;;;;;;4974939;28;20042;-53
2022/01/13 02:31:58;;;;;;;441.42;36.38;;;4.40;99.90;;;;;;4975757;28;20043;-56
2022/01/13 02:34:24;;;;;;;411.92;35.40;;;4.50;99.90;;;;;;4975685;28;20093;-56
2022/01/13 02:36:53;;;;;;;415.55;35.03;;;4.40;99.90;;;;;;4975608;28;20065;-54
2022/01/13 02:39:21;;;;;;;380.90;34.00;;;4.40;99.90;;;;;;4975296;28;20043;-55
2022/01/13 02:41:47;;;;;;;424.42;36.17;;;4.40;99.90;;;;;;4975511;28;20042;-55
2022/01/13 02:44:17;;;;;;;368.63;32.45;;;4.40;99.90;;;;;;4975551;28;20039;-56
2022/01/13 02:47:05;;;;;;;413.20;32.67;;;4.40;99.90;;;;;;4975124;28;20035;-57
2022/01/13 02:49:29;;;;;;;465.08;35.45;;;4.40;99.90;;;;;;4974902;28;20093;-55
2022/01/13 02:51:54;;;;;;;364.83;30.58;;;4.40;99.90;;;;;;4975305;28;20081;-54
2022/01/13 02:54:20;;;;;;;463.50;36.45;;;4.30;99.90;;;;;;4975226;28;20478;-58
2022/01/13 02:56:47;;;;;;;402.25;33.58;;;4.30;99.90;;;;;;4975336;28;20050;-56
2022/01/13 02:59:13;;;;;;;355.63;29.98;;;4.30;99.90;;;;;;4974736;28;20042;-56
2022/01/13 03:01:40;;;;;;;443.63;35.97;;;4.30;99.90;;;;;;4974873;28;20070;-53
2022/01/13 03:04:08;;;;;;;409.95;34.22;;;4.30;99.90;;;;;;4975143;28;20043;-55
2022/01/13 03:06:37;;;;;;;373.50;30.25;;;4.30;99.90;;;;;;4975067;28;20043;-52
2022/01/13 03:09:05;;;;;;;349.40;29.50;;;4.30;99.90;;;;;;4975100;28;20192;-56
2022/01/13 03:11:37;;;;;;;403.75;33.10;;;4.30;99.90;;;;;;4974710;28;20039;-57
2022/01/13 03:14:10;;;;;;;384.77;32.53;;;4.30;99.90;;;;;;4974633;28;20043;-56
2022/01/13 03:16:37;;;;;;;399.17;33.30;;;4.30;99.90;;;;;;4955591;28;20055;-55
2022/01/13 03:19:03;;;;;;;384.67;31.50;;;4.30;99.90;;;;;;4955485;28;20039;-57
2022/01/13 03:21:29;;;;;;;369.00;32.22;;;4.30;99.90;;;;;;4955656;28;20027;-54
2022/01/13 03:23:54;;;;;;;356.30;31.27;;;4.30;99.90;;;;;;4955582;28;20509;-55
2022/01/13 03:26:21;;;;;;;375.30;29.98;;;4.30;99.90;;;;;;4955304;28;20028;-57
2022/01/13 03:28:51;;;;;;;336.67;29.63;;;4.30;99.90;;;;;;4954756;28;20053;-55
2022/01/13 03:31:19;;;;;;;420.08;34.05;;;4.30;99.90;;;;;;4955286;28;20086;-57
2022/01/13 03:33:45;;;;;;;372.52;31.23;;;4.30;99.90;;;;;;4955058;28;20131;-53
2022/01/13 03:36:11;;;;;;;410.00;33.72;;;4.30;99.90;;;;;;4955357;28;20039;-55
2022/01/13 03:38:37;;;;;;;345.00;31.75;;;4.30;99.90;;;;;;4954854;28;20042;-52
2022/01/13 03:41:03;;;;;;;386.65;32.72;;;4.30;99.90;;;;;;4955206;28;20043;-52
2022/01/13 03:43:29;;;;;;;336.45;29.83;;;4.30;99.90;;;;;;4955616;28;20035;-57
2022/01/13 03:45:55;;;;;;;320.90;29.88;;;4.30;99.90;;;;;;4954924;28;20118;-56
2022/01/13 03:48:21;;;;;;;365.08;31.83;;;4.30;99.90;;;;;;4954813;28;20560;-53
2022/01/13 03:50:47;;;;;;;353.80;32.17;;;4.30;99.90;;;;;;4954847;28;20054;-54
2022/01/13 03:53:28;;;;;;;313.95;31.05;;;4.30;99.90;;;;;;4954922;28;20031;-55
2022/01/13 03:56:31;;;;;;;335.75;32.42;;;4.30;99.90;;;;;;4955060;28;20035;-54
2022/01/13 03:59:14;;;;;;;362.60;30.70;;;4.30;99.90;;;;;;4954521;28;20054;-56
2022/01/13 04:02:00;;;;;;;346.13;31.85;;;4.30;99.90;;;;;;4954693;28;20071;-55
2022/01/13 04:04:28;;;;;;;263.60;27.23;;;4.30;99.90;;;;;;4954917;28;20043;-57
2022/01/13 04:07:15;;;;;;;339.40;31.90;;;4.30;99.90;;;;;;4955371;28;20058;-55
2022/01/13 04:09:41;;;;;;;330.85;31.23;;;4.30;99.90;;;;;;4954415;28;20039;-55
2022/01/13 04:12:10;;;;;;;294.60;28.52;;;4.30;99.90;;;;;;4954807;28;20118;-56
2022/01/13 04:17:08;;;;;;;291.35;29.58;;;4.30;99.90;;;;;;4954167;28;20051;-57
2022/01/13 04:19:34;;;;;;;254.15;25.73;;;4.30;99.90;;;;;;4954564;28;20042;-53
2022/01/13 04:22:00;;;;;;;305.00;28.98;;;4.30;99.90;;;;;;4954134;28;20513;-53
2022/01/13 04:24:25;;;;;;;262.40;26.60;;;4.30;99.90;;;;;;4953273;28;20043;-56
2022/01/13 04:26:53;;;;;;;198.63;24.92;;;4.30;99.90;;;;;;4953980;28;20043;-53
2022/01/13 04:29:28;;;;;;;201.32;25.30;;;4.30;99.90;;;;;;4953893;28;20480;-56
2022/01/13 04:31:54;;;;;;;191.00;24.15;;;4.20;99.90;;;;;;4972449;28;20133;-57
2022/01/13 04:34:19;;;;;;;225.80;29.42;;;4.30;99.90;;;;;;4973391;28;20219;-55
2022/01/13 04:36:46;;;;;;;255.18;29.98;;;4.20;99.90;;;;;;4973469;28;20034;-56
2022/01/13 04:39:14;;;;;;;339.38;32.00;;;4.20;99.90;;;;;;4973410;28;20038;-53
2022/01/13 04:41:41;;;;;;;303.55;30.38;;;4.20;99.90;;;;;;4972897;28;20055;-58
2022/01/13 04:44:10;;;;;;;298.40;30.55;;;4.20;99.90;;;;;;4973309;28;20379;-55
2022/01/13 04:46:37;;;;;;;385.10;33.97;;;4.30;99.90;;;;;;4973329;28;20121;-57
2022/01/13 04:49:04;;;;;;;323.63;30.60;;;4.30;99.90;;;;;;4972673;28;20035;-54
2022/01/13 04:51:30;;;;;;;293.00;29.10;;;4.20;99.90;;;;;;4973213;28;20038;-56
2022/01/13 04:53:56;;;;;;;323.83;30.45;;;4.30;99.90;;;;;;4955335;28;20043;-57
2022/01/13 04:56:31;;;;;;;312.02;29.17;;;4.20;99.90;;;;;;4973000;28;20130;-56
2022/01/13 04:58:58;;;;;;;351.67;33.47;;;4.20;99.90;;;;;;4972679;28;20386;-58
2022/01/13 05:01:24;;;;;;;327.50;29.88;;;4.20;99.90;;;;;;4953802;28;20050;-56
2022/01/13 05:03:50;;;;;;;312.20;31.15;;;4.30;99.90;;;;;;4953683;28;20031;-55
2022/01/13 05:06:19;;;;;;;294.58;28.73;;;4.20;99.90;;;;;;4953351;28;20101;-56
2022/01/13 05:08:45;;;;;;;291.05;29.55;;;4.20;99.90;;;;;;4953691;28;20047;-51
2022/01/13 05:11:11;;;;;;;321.05;31.33;;;4.20;99.90;;;;;;4952956;28;20046;-55
2022/01/13 05:13:37;;;;;;;262.38;29.55;;;4.20;99.90;;;;;;4953508;28;20035;-53
2022/01/13 05:16:03;;;;;;;334.02;31.38;;;4.20;99.90;;;;;;4952238;28;20586;-56
2022/01/13 05:18:44;;;;;;;261.52;27.30;;;4.20;99.90;;;;;;4953610;28;20040;-53
2022/01/13 05:21:20;;;;;;;292.23;29.27;;;4.20;99.90;;;;;;4952466;28;20159;-58
2022/01/13 05:23:46;;;;;;;304.17;29.85;;;4.20;99.90;;;;;;4950818;28;20434;-54
2022/01/13 05:26:12;;;;;;;278.48;29.70;;;4.20;99.90;;;;;;4950621;28;20142;-56
2022/01/13 05:28:40;;;;;;;273.17;29.80;;;4.10;99.90;;;;;;4950599;28;20039;-54
2022/01/13 05:31:06;;;;;;;308.10;32.22;;;4.10;99.90;;;;;;4950831;28;20043;-56
2022/01/13 05:33:32;;;;;;;314.23;32.95;;;4.10;99.90;;;;;;4953164;28;20046;-56
2022/01/13 05:35:58;;;;;;;251.50;30.23;;;4.10;99.90;;;;;;4952172;28;20038;-57
2022/01/13 05:38:24;;;;;;;276.75;28.95;;;4.10;99.90;;;;;;4952839;28;20402;-56
2022/01/13 05:40:50;;;;;;;268.63;30.60;;;4.10;99.90;;;;;;4953097;28;20374;-54
2022/01/13 05:43:15;;;;;;;282.38;30.20;;;4.10;99.90;;;;;;4952866;28;20090;-56
2022/01/13 05:45:41;;;;;;;321.48;31.75;;;4.10;99.90;;;;;;4953072;28;20042;-55
2022/01/13 05:48:08;;;;;;;313.40;30.95;;;4.10;99.90;;;;;;4953063;28;20058;-54
2022/01/13 05:50:34;;;;;;;323.50;31.65;;;4.10;99.90;;;;;;4952953;28;20046;-57
2022/01/13 05:53:00;;;;;;;321.90;32.63;;;4.10;99.90;;;;;;4954756;28;20050;-57
2022/01/13 05:55:25;;;;;;;289.30;32.67;;;4.10;99.90;;;;;;4953009;28;20151;-55
2022/01/13 05:57:51;;;;;;;327.13;31.33;;;4.10;99.90;;;;;;4935515;28;20539;-53
2022/01/13 06:00:19;;;;;;;335.95;33.33;;;4.10;99.90;;;;;;4952174;28;20105;-55
2022/01/13 06:02:46;;;;;;;354.58;33.03;;;4.10;99.90;;;;;;4952868;28;20067;-54
2022/01/13 06:05:13;;;;;;;341.83;32.38;;;4.10;99.90;;;;;;4952827;28;20036;-58
2022/01/13 06:07:38;;;;;;;336.48;32.63;;;4.10;99.90;;;;;;4952870;28;20031;-54
2022/01/13 06:10:08;;;;;;;311.70;32.10;;;4.10;99.90;;;;;;4952754;28;20506;-56
2022/01/13 06:12:37;;;;;;;328.42;32.70;;;4.10;99.90;;;;;;4952968;28;20435;-56
2022/01/13 06:15:07;;;;;;;326.70;31.55;;;4.10;99.90;;;;;;4952989;28;20475;-58
2022/01/13 06:17:33;;;;;;;315.88;32.15;;;4.10;99.90;;;;;;4952533;28;20133;-55
2022/01/13 06:19:59;;;;;;;322.30;32.53;;;4.10;99.90;;;;;;4952649;28;20087;-56
2022/01/13 06:22:26;;;;;;;332.38;32.63;;;4.10;99.90;;;;;;4952676;28;20036;-58
2022/01/13 06:24:52;;;;;;;319.25;33.38;;;4.10;99.90;;;;;;4952532;28;20159;-55
2022/01/13 06:27:19;;;;;;;326.10;33.65;;;4.10;99.90;;;;;;4952853;28;20043;-56
2022/01/13 06:29:45;;;;;;;311.15;31.75;;;4.10;99.90;;;;;;4970265;28;20047;-56
2022/01/13 06:32:10;;;;;;;371.30;35.08;;;4.10;99.90;;;;;;4972050;28;20031;-56
2022/01/13 06:34:36;;;;;;;324.25;32.65;;;4.00;99.90;;;;;;4971927;28;20125;-58
2022/01/13 06:37:02;;;;;;;369.20;37.20;;;4.10;99.90;;;;;;4971951;28;20513;-56
2022/01/13 06:39:28;;;;;;;390.20;35.35;;;4.10;99.90;;;;;;4954174;28;20094;-57
2022/01/13 06:41:54;;;;;;;369.23;37.83;;;4.10;99.90;;;;;;4971890;28;20390;-56
2022/01/13 06:44:20;;;;;;;362.70;37.22;;;4.00;99.90;;;;;;4971785;28;20459;-58
2022/01/13 06:46:45;;;;;;;330.30;36.53;;;4.10;99.90;;;;;;4971674;28;20038;-57
2022/01/13 06:49:11;;;;;;;367.85;36.45;;;4.10;99.90;;;;;;4975268;28;20035;-57
2022/01/13 06:51:37;;;;;;;375.38;38.28;;;4.10;99.90;;;;;;4975406;28;20047;-54
2022/01/13 06:54:02;;;;;;;311.60;33.85;;;4.10;99.90;;;;;;4975494;28;20173;-56
2022/01/13 06:56:29;;;;;;;367.98;37.10;;;4.10;99.90;;;;;;4975235;28;20034;-54
2022/01/13 06:58:55;;;;;;;402.40;37.67;;;4.10;99.90;;;;;;4973424;28;20600;-55
2022/01/13 07:01:22;;;;;;;331.02;34.22;;;4.10;99.90;;;;;;4975023;28;20113;-57
2022/01/13 07:03:49;;;;;;;391.45;38.17;;;4.10;99.90;;;;;;4974696;28;20043;-57
2022/01/13 07:06:15;;;;;;;361.25;35.97;;;4.10;99.90;;;;;;4974801;28;20125;-53
2022/01/13 07:08:41;;;;;;;396.13;37.38;;;4.10;99.90;;;;;;4973391;28;20078;-54
2022/01/13 07:11:06;;;;;;;385.65;39.28;;;4.10;99.90;;;;;;4974753;28;20129;-54
2022/01/13 07:13:33;;;;;;;379.48;36.70;;;4.10;99.90;;;;;;4974710;28;20038;-55
2022/01/13 07:16:01;;;;;;;384.85;37.67;;;4.10;99.90;;;;;;4974374;28;20513;-57
2022/01/13 07:18:28;;;;;;;366.08;36.22;;;4.10;99.90;;;;;;4974893;28;20074;-52
2022/01/13 07:20:56;;;;;;;320.25;35.33;;;4.10;99.90;;;;;;4974568;28;20434;-55
2022/01/13 07:23:22;;;;;;;370.13;35.75;;;4.10;99.90;;;;;;4974786;28;20043;-58
2022/01/13 07:25:47;;;;;;;354.23;37.53;;;4.10;99.90;;;;;;4974520;28;20047;-49
2022/01/13 07:28:13;;;;;;;337.20;35.38;;;4.10;99.90;;;;;;4974824;28;20130;-53
2022/01/13 07:30:39;;;;;;;327.98;35.25;;;4.10;99.90;;;;;;4974107;28;20062;-52
2022/01/13 07:33:04;;;;;;;334.10;35.30;;;4.10;99.90;;;;;;4974177;28;20089;-56
2022/01/13 07:35:30;;;;;;;302.77;33.80;;;4.10;99.90;;;;;;4974273;28;20058;-55
2022/01/13 07:37:56;;;;;;;317.58;34.67;;;4.10;99.90;;;;;;4973944;28;20474;-56
2022/01/13 07:40:22;;;;;;;350.15;37.00;;;4.10;99.90;;;;;;4974321;28;20086;-57
2022/01/13 07:42:48;;;;;;;331.75;37.63;;;4.10;99.90;;;;;;4974627;28;20039;-57
2022/01/13 07:45:16;;;;;;;368.80;37.58;;;4.20;99.90;;;;;;4974131;28;20469;-55
2022/01/13 07:47:42;;;;;;;369.63;35.50;;;4.10;99.90;;;;;;4974404;28;20039;-56
2022/01/13 07:50:11;;;;;;;401.25;38.17;;;4.10;99.90;;;;;;4967421;28;20428;-58
2022/01/13 07:52:36;;;;;;;348.38;35.63;;;4.20;99.90;;;;;;4961174;28;20045;-56
2022/01/13 07:55:03;;;;;;;289.52;33.92;;;4.20;99.90;;;;;;4963756;28;20039;-56
2022/01/13 07:57:29;;;;;;;329.48;36.00;;;4.20;99.90;;;;;;4958229;28;20043;-53
2022/01/13 07:59:56;;;;;;;329.17;35.97;;;4.20;99.90;;;;;;4954057;28;20042;-53
2022/01/13 08:02:22;;;;;;;318.63;36.20;;;4.20;99.90;;;;;;4956776;28;20039;-56
2022/01/13 08:04:49;;;;;;;311.10;34.45;;;4.20;99.90;;;;;;4952155;28;20077;-55
2022/01/13 08:07:16;;;;;;;293.63;34.75;;;4.20;99.90;;;;;;4961788;28;20038;-56
2022/01/13 08:09:42;;;;;;;234.82;30.23;;;4.20;99.90;;;;;;4961910;28;20482;-58
2022/01/13 08:12:08;;;;;;;282.30;34.05;;;4.20;99.90;;;;;;4965360;28;20026;-58
2022/01/13 08:14:34;;;;;;;295.30;34.67;;;4.20;99.90;;;;;;4963409;28;20042;-54
2022/01/13 08:17:02;;;;;;;264.85;33.83;;;4.20;99.90;;;;;;4963010;28;20063;-57
2022/01/13 08:19:46;;;;;;;271.15;34.20;;;4.30;99.90;;;;;;4964569;28;20058;-56
2022/01/13 08:22:16;;;;;;;267.40;35.63;;;4.20;99.90;;;;;;4963213;28;20066;-56
2022/01/13 08:24:43;;;;;;;292.60;36.35;;;4.30;99.90;;;;;;4962978;28;20093;-58
2022/01/13 08:27:09;;;;;;;269.27;34.40;;;4.30;99.90;;;;;;4963573;28;20042;-57
2022/01/13 08:29:35;;;;;;;301.70;36.33;;;4.30;99.90;;;;;;4963049;28;20718;-57
2022/01/13 08:32:01;;;;;;;244.27;32.88;;;4.30;99.90;;;;;;4964225;28;20042;-56
2022/01/13 08:34:27;;;;;;;275.17;36.08;;;4.30;99.90;;;;;;4964191;28;20047;-54
2022/01/13 08:36:52;;;;;;;284.83;37.00;;;4.30;99.90;;;;;;4963071;28;20093;-55
2022/01/13 08:39:18;;;;;;;315.45;37.20;;;4.40;99.90;;;;;;4962986;28;20414;-57
2022/01/13 08:41:45;;;;;;;272.70;35.70;;;4.40;99.90;;;;;;4963845;28;20039;-55
2022/01/13 08:44:11;;;;;;;323.27;36.75;;;4.40;99.90;;;;;;4964256;28;20057;-54
2022/01/13 08:46:37;;;;;;;296.90;37.28;;;4.40;99.90;;;;;;4963131;28;20402;-55
2022/01/13 08:49:03;;;;;;;293.88;35.22;;;4.40;99.90;;;;;;4961401;28;20450;-56
2022/01/13 08:51:29;;;;;;;275.65;34.17;;;4.40;99.90;;;;;;4959325;28;20043;-58
2022/01/13 08:53:54;;;;;;;311.30;35.05;;;4.50;99.90;;;;;;4957897;28;20035;-56
2022/01/13 08:56:21;;;;;;;315.40;36.15;;;4.50;99.90;;;;;;4960293;28;20574;-55
2022/01/13 09:16:47;;;;;;;318.08;38.22;;;4.60;99.90;;;;;;4997016;23;20057;-54
2022/01/13 09:19:14;;;;;;;288.30;36.30;;;4.60;99.90;;;;;;4988484;28;20220;-57
2022/01/13 09:21:42;;;;;;;346.73;40.33;;;4.60;99.90;;;;;;4995382;28;20038;-55
2022/01/13 09:24:12;;;;;;;301.38;37.30;;;4.60;99.90;;;;;;4989668;28;20080;-58
2022/01/13 09:26:38;;;;;;;309.95;37.95;;;4.70;99.90;;;;;;4988106;28;20045;-57
2022/01/13 09:42:15;;;;;;;357.75;42.22;;;4.80;99.90;;;;;;4943542;29;20058;-55
2022/01/13 09:44:41;;;;;;;333.13;38.85;;;4.90;99.90;;;;;;4947848;29;20130;-56
2022/01/13 09:47:07;;;;;;;315.67;37.95;;;4.80;99.90;;;;;;4947882;29;20522;-57
2022/01/13 09:49:32;;;;;;;240.05;34.05;;;4.80;99.90;;;;;;4949457;29;20518;-55
2022/01/13 09:51:58;;;;;;;289.77;37.08;;;4.80;99.90;;;;;;4951575;29;20039;-55
2022/01/13 09:54:24;;;;;;;292.58;37.53;;;4.90;99.90;;;;;;4952576;29;20067;-56
2022/01/13 09:56:49;;;;;;;286.35;36.42;;;4.90;99.90;;;;;;4951769;29;21336;-56
2022/01/13 09:59:15;;;;;;;328.20;39.00;;;4.90;99.90;;;;;;4950136;28;20106;-58
2022/01/13 10:01:41;;;;;;;286.23;36.60;;;4.90;99.90;;;;;;4952541;29;20031;-58
2022/01/13 10:04:06;;;;;;;268.02;36.60;;;4.90;99.90;;;;;;4950587;28;20062;-56
2022/01/13 10:06:41;;;;;;;341.67;39.55;;;4.90;99.90;;;;;;4952443;28;20039;-58
2022/01/13 10:09:07;;;;;;;302.75;37.47;;;4.90;99.90;;;;;;4951784;29;20073;-58
2022/01/13 10:11:41;;;;;;;323.38;38.95;;;5.00;99.90;;;;;;4935226;29;20078;-57
2022/01/13 10:16:22;;;;;;;293.52;37.15;;;5.00;99.90;;;;;;4951040;29;20086;-58
2022/01/13 10:17:10;;;;;;;280.05;35.50;;;4.90;99.90;;;;;;4945511;28;20061;-57
2022/01/13 10:19:44;;;;;;;333.33;38.50;;;5.00;99.90;;;;;;4940843;28;20043;-58
2022/01/13 10:22:11;;;;;;;295.67;36.10;;;5.00;99.90;;;;;;4943651;28;20035;-57
2022/01/13 10:24:43;;;;;;;284.70;36.58;;;5.00;99.90;;;;;;4952124;28;20039;-58
2022/01/13 10:27:12;;;;;;;290.75;36.95;;;5.00;99.90;;;;;;4954728;29;20106;-54
2022/01/13 10:29:45;;;;;;;285.98;35.47;;;5.00;99.90;;;;;;4954873;29;20386;-56
2022/01/13 10:32:13;;;;;;;277.75;36.15;;;5.00;99.90;;;;;;4954536;28;20118;-58
2022/01/13 10:34:42;;;;;;;281.60;35.08;;;5.00;99.90;;;;;;4955720;29;20495;-55
2022/01/13 10:37:13;;;;;;;321.63;38.95;;;5.00;99.90;;;;;;4952482;29;20125;-58
2022/01/13 10:40:00;;;;;;;279.92;36.97;;;5.10;99.90;;;;;;4954223;29;20491;-58
2022/01/13 10:45:36;;;;;;;262.42;34.60;;;5.00;99.90;;;;;;4952699;29;20110;-58
2022/01/13 10:48:32;;;;;;;249.63;35.13;;;5.00;99.90;;;;;;4951454;29;20094;-60
2022/01/13 10:51:11;;;;;;;249.80;34.90;;;5.00;99.90;;;;;;4952548;28;20102;-59
2022/01/13 10:53:42;;;;;;;250.73;34.47;;;5.00;99.90;;;;;;4804523;23;20114;-57
2022/01/13 10:56:14;;;;;;;266.55;35.63;;;5.00;99.90;;;;;;5027740;28;20582;-56
2022/01/13 10:58:49;;;;;;;266.33;35.22;;;5.00;99.90;;;;;;5030881;28;20044;-56
2022/01/13 11:01:15;;;;;;;266.13;33.83;;;5.20;99.90;;;;;;5031122;28;20030;-56
2022/01/13 11:03:43;;;;;;;250.27;35.25;;;5.00;99.90;;;;;;5030452;28;20076;-58
2022/01/13 11:06:12;;;;;;;283.08;37.47;;;5.00;99.90;;;;;;5027842;28;20148;-58
2022/01/13 11:08:42;;;;;;;237.40;36.60;;;5.00;99.90;;;;;;5029988;28;20068;-56
2022/01/13 11:11:21;;;;;;;267.75;36.30;;;5.10;99.90;;;;;;5031693;28;20052;-56
2022/01/13 11:13:53;;;;;;;263.92;36.50;;;5.00;99.90;;;;;;5027021;28;20053;-55
2022/01/13 11:16:20;;;;;;;276.98;39.35;;;5.10;99.90;;;;;;5027091;28;20087;-57
2022/01/13 11:18:46;;;;;;;283.45;38.88;;;5.10;99.90;;;;;;5028624;28;20055;-56
2022/01/13 11:21:13;;;;;;;270.42;38.22;;;5.10;99.90;;;;;;5005955;28;20041;-55
2022/01/13 11:23:41;;;;;;;235.63;36.85;;;5.10;99.90;;;;;;5026473;28;20034;-56
2022/01/13 11:26:09;;;;;;;299.17;39.38;;;5.10;99.90;;;;;;5027007;28;20363;-59
2022/01/13 11:28:36;;;;;;;265.33;38.95;;;5.20;99.90;;;;;;5025210;28;20041;-57
2022/01/13 11:31:01;;;;;;;271.33;38.90;;;5.20;99.90;;;;;;5025221;28;20045;-58
2022/01/13 11:33:27;;;;;;;258.33;36.95;;;5.20;99.90;;;;;;5028459;28;20045;-58
2022/01/13 11:35:57;;;;;;;218.20;34.90;;;5.20;99.90;;;;;;5027212;28;20042;-55
2022/01/13 11:38:25;;;;;;;250.88;35.28;;;5.20;99.90;;;;;;5005877;28;20040;-56
2022/01/13 11:40:57;;;;;;;233.90;36.92;;;5.20;99.90;;;;;;5009377;28;20063;-56
2022/01/13 11:43:38;;;;;;;239.35;35.15;;;5.20;99.90;;;;;;5020703;28;20116;-55
2022/01/13 11:46:19;;;;;;;244.88;36.53;;;5.20;99.90;;;;;;5020801;28;20025;-58
2022/01/13 11:49:03;;;;;;;266.35;38.50;;;5.20;99.90;;;;;;5018265;28;20553;-56
2022/01/13 11:51:43;;;;;;;278.63;37.70;;;5.30;99.90;;;;;;5020435;28;20045;-57
2022/01/13 11:54:08;;;;;;;242.65;36.35;;;5.20;99.90;;;;;;5004461;28;20049;-56
2022/01/13 11:56:34;;;;;;;229.38;33.45;;;5.90;99.90;;;;;;5024566;28;20099;-59
2022/01/13 11:59:00;;;;;;;232.30;33.50;;;5.30;99.90;;;;;;5023349;28;20485;-56
2022/01/13 12:01:31;;;;;;;265.05;37.08;;;5.30;99.90;;;;;;5022432;28;20132;-56
2022/01/13 12:03:59;;;;;;;220.32;35.03;;;5.30;99.90;;;;;;5022440;28;20076;-58
2022/01/13 12:06:44;;;;;;;208.32;34.42;;;5.30;99.90;;;;;;5021959;28;20041;-58
2022/01/13 12:09:21;;;;;;;185.43;31.58;;;5.40;99.90;;;;;;5023179;28;20448;-57
2022/01/13 12:11:55;;;;;;;200.55;33.85;;;5.40;99.90;;;;;;5023412;28;20372;-53
2022/01/13 12:14:30;;;;;;;216.77;35.25;;;5.40;99.90;;;;;;5023436;28;20068;-57
2022/01/13 12:17:05;;;;;;;178.93;31.67;;;5.40;99.90;;;;;;5023032;28;20056;-52
2022/01/13 12:19:39;;;;;;;180.15;34.55;;;5.40;99.90;;;;;;5022762;28;20099;-55
2022/01/13 12:22:39;;;;;;;204.73;34.92;;;5.40;99.90;;;;;;5028039;28;20029;-55
2022/01/13 12:25:11;;;;;;;184.85;33.45;;;5.40;99.90;;;;;;5017561;28;20092;-57
2022/01/13 12:27:48;;;;;;;184.65;33.63;;;5.40;99.90;;;;;;5029227;28;20437;-57
2022/01/13 12:30:25;;;;;;;186.48;34.28;;;5.40;99.90;;;;;;5030672;28;20057;-56
2022/01/13 12:32:59;;;;;;;197.85;35.72;;;5.40;99.90;;;;;;5030733;28;20044;-56
2022/01/13 12:35:31;;;;;;;207.23;34.88;;;5.40;99.90;;;;;;5031948;28;20043;-55
2022/01/13 12:38:05;;;;;;;211.70;36.17;;;5.40;99.90;;;;;;5030501;28;20044;-56
2022/01/13 12:40:39;;;;;;;205.15;36.95;;;5.40;99.90;;;;;;5031285;28;20145;-53
2022/01/13 12:43:48;;;;;;;179.98;34.35;;;5.50;99.90;;;;;;5031414;28;20416;-55
2022/01/13 12:46:21;;;;;;;181.57;34.53;;;5.50;99.90;;;;;;5030523;28;20120;-58
2022/01/13 12:48:49;;;;;;;175.77;35.37;;;5.50;99.90;;;;;;5012865;28;20049;-58
2022/01/13 12:51:18;;;;;;;204.20;38.70;;;5.50;99.90;;;;;;5030184;28;20288;-58
2022/01/13 12:53:45;;;;;;;200.02;36.38;;;5.60;99.90;;;;;;5030795;28;20576;-57
2022/01/13 12:56:14;;;;;;;176.80;34.80;;;5.60;99.90;;;;;;5030257;28;20056;-56
2022/01/13 12:58:48;;;;;;;187.20;36.45;;;5.60;99.90;;;;;;5030065;28;20120;-59
2022/01/13 13:01:23;;;;;;;170.73;35.70;;;5.70;99.90;;;;;;5029836;28;20070;-57
2022/01/13 13:04:07;;;;;;;187.52;36.47;;;5.70;99.90;;;;;;5031406;28;20116;-56
2022/01/13 13:06:34;;;;;;;169.82;36.75;;;5.70;99.90;;;;;;5031192;28;20453;-56
2022/01/13 13:09:14;;;;;;;182.70;39.58;;;5.70;99.90;;;;;;5028141;28;20038;-55
2022/01/13 13:11:45;;;;;;;185.45;37.40;;;5.70;99.90;;;;;;5030122;28;20037;-59
2022/01/13 13:14:17;;;;;;;188.32;37.97;;;5.80;99.90;;;;;;5031411;28;20439;-55
2022/01/13 13:16:45;;;;;;;177.90;38.42;;;5.70;99.90;;;;;;5030693;28;20049;-57
2022/01/13 13:19:10;;;;;;;178.52;38.55;;;5.80;99.90;;;;;;5030223;28;20167;-55